Time;durP1;ratioP1;P1;durP2;ratioP2;P2;SDS_P1;SDS_P2;PMS_P1;PMS_P2;Temp;Humidity;BMP_temperature;BMP_pressure;BME280_temperature;BME280_humidity;BME280_pressure;Samples;Min_cycle;Max_cycle;Signal;HPM_P1;HPM_P2
2023/08/05 00:00:50;;;;;;;;;;;;;;;;;;;;;
2023/08/05 00:13:38;;;;;;;13.23;6.00;;;20.40;56.10;;;;;;4916605;29;20180;-70
2023/08/05 00:16:07;;;;;;;11.77;6.40;;;20.40;56.20;;;;;;4916550;29;20308;-71
2023/08/05 00:22:32;;;;;;;11.85;6.07;;;20.30;56.20;;;;;;4897478;29;20212;-70
2023/08/05 00:25:00;;;;;;;11.75;6.10;;;20.30;56.20;;;;;;4878891;29;20230;-71
2023/08/05 00:27:27;;;;;;;14.48;6.30;;;20.30;56.20;;;;;;4878654;29;20274;-71
2023/08/05 00:29:55;;;;;;;10.07;5.43;;;20.30;56.20;;;;;;4878717;29;20438;-70
2023/08/05 00:57:45;;;;;;;11.50;6.25;;;20.20;56.20;;;;;;4864894;29;20256;-71
2023/08/05 01:00:13;;;;;;;12.48;6.32;;;20.30;56.30;;;;;;4896837;29;20238;-70
2023/08/05 01:03:01;;;;;;;13.75;5.40;;;20.30;56.30;;;;;;4896776;29;20202;-70
2023/08/05 01:05:53;;;;;;;12.57;5.90;;;20.30;56.30;;;;;;4886242;29;20218;-71
2023/08/05 01:11:55;;;;;;;10.73;5.35;;;20.30;56.40;;;;;;4896621;29;20632;-71
2023/08/05 01:21:21;;;;;;;;;;;;;;;;;;;;;
2023/08/05 01:34:22;;;;;;;;;;;;;;;;;;;;;
2023/08/05 01:39:40;;;;;;;11.98;6.50;;;20.30;56.60;;;;;;4876942;29;20207;-71
2023/08/05 01:42:09;;;;;;;10.45;5.68;;;20.20;56.50;;;;;;4918402;29;20206;-70
2023/08/05 01:44:37;;;;;;;12.50;5.95;;;20.20;56.50;;;;;;4971380;28;20356;-71
2023/08/05 01:47:08;;;;;;;14.90;6.63;;;20.20;56.50;;;;;;4991938;28;20250;-71
2023/08/05 01:49:36;;;;;;;12.18;6.40;;;20.20;56.50;;;;;;4991521;28;20201;-70
2023/08/05 01:55:02;;;;;;;16.90;6.43;;;20.20;56.50;;;;;;4990063;28;20228;-71
2023/08/05 01:57:31;;;;;;;12.32;6.75;;;20.20;56.60;;;;;;4980997;28;20198;-70
2023/08/05 01:59:59;;;;;;;13.57;6.38;;;20.20;56.60;;;;;;4991398;28;20253;-70
2023/08/05 02:02:56;;;;;;;12.55;6.32;;;20.30;56.70;;;;;;4991448;28;20727;-70
2023/08/05 02:05:28;;;;;;;15.43;6.88;;;20.20;56.70;;;;;;4987828;28;20234;-71
2023/08/05 02:10:50;;;;;;;14.23;6.68;;;20.20;56.70;;;;;;4981720;28;20227;-71
2023/08/05 02:13:19;;;;;;;11.98;6.70;;;20.20;56.70;;;;;;4991187;28;20198;-70
2023/08/05 02:15:47;;;;;;;13.20;6.70;;;20.20;56.70;;;;;;4991288;28;20265;-70
2023/08/05 02:18:16;;;;;;;12.25;6.38;;;20.20;56.70;;;;;;4991143;28;20190;-70
2023/08/05 02:21:19;;;;;;;11.10;6.78;;;20.20;56.70;;;;;;4991071;28;20237;-70
2023/08/05 02:27:57;;;;;;;13.90;7.20;;;20.20;56.80;;;;;;4933348;29;20203;-70
2023/08/05 02:30:52;;;;;;;9.77;6.70;;;20.10;56.80;;;;;;4933092;29;20216;-71
2023/08/05 02:33:34;;;;;;;12.02;7.22;;;20.20;56.90;;;;;;4933130;29;20217;-71
2023/08/05 02:39:16;;;;;;;14.98;7.07;;;20.20;57.00;;;;;;4905645;29;20650;-71
2023/08/05 02:41:54;;;;;;;11.60;6.80;;;20.20;57.00;;;;;;4913539;29;20240;-71
2023/08/05 02:50:48;;;;;;;;;;;;;;;;;;;;;
2023/08/05 02:56:40;;;;;;;12.98;7.05;;;20.20;57.10;;;;;;4914282;29;20655;-71
2023/08/05 02:59:08;;;;;;;13.02;7.15;;;20.20;57.10;;;;;;4913948;29;20201;-71
2023/08/05 03:11:42;;;;;;;11.20;7.63;;;20.20;57.20;;;;;;4967744;28;20222;-72
2023/08/05 03:14:12;;;;;;;12.13;7.70;;;20.10;57.10;;;;;;4970851;28;20191;-71
2023/08/05 03:16:39;;;;;;;12.15;7.20;;;20.20;57.20;;;;;;4971178;28;20222;-71
2023/08/05 03:19:07;;;;;;;17.63;8.05;;;20.10;57.10;;;;;;4970939;28;20187;-72
2023/08/05 03:21:35;;;;;;;11.40;7.60;;;20.10;57.10;;;;;;4971022;28;20325;-71
2023/08/05 03:24:15;;;;;;;13.45;7.82;;;20.10;57.20;;;;;;4970743;28;20199;-71
2023/08/05 03:39:13;;;;;;;12.32;8.23;;;20.20;57.30;;;;;;4965783;28;20256;-71
2023/08/05 03:41:51;;;;;;;;;;;;;;;;;;;;;
2023/08/05 03:44:29;;;;;;;;;;;;;;;;;;;;;
2023/08/05 03:57:16;;;;;;;15.55;8.13;;;20.10;57.40;;;;;;4932234;29;20223;-71
2023/08/05 03:59:47;;;;;;;12.88;8.63;;;20.10;57.50;;;;;;4924375;29;20200;-70
2023/08/05 04:02:27;;;;;;;12.98;8.07;;;20.10;57.40;;;;;;4933732;29;20263;-71
2023/08/05 04:10:49;;;;;;;13.25;8.20;;;20.10;57.50;;;;;;4835223;29;20271;-71
2023/08/05 04:13:27;;;;;;;;;;;;;;;;;;;;;
2023/08/05 04:15:58;;;;;;;15.00;8.93;;;20.00;57.30;;;;;;4841817;29;20239;-70
2023/08/05 04:18:25;;;;;;;14.45;8.57;;;20.10;57.40;;;;;;4842022;29;20204;-71
2023/08/05 04:20:55;;;;;;;13.43;8.15;;;20.10;57.40;;;;;;4841815;29;20254;-71
2023/08/05 04:33:33;;;;;;;14.55;8.50;;;20.10;57.30;;;;;;4860031;29;20700;-71
2023/08/05 04:38:52;;;;;;;15.40;8.60;;;20.10;57.30;;;;;;4954113;28;20268;-71
2023/08/05 04:41:22;;;;;;;13.88;8.30;;;20.10;57.20;;;;;;4954290;29;20239;-71
2023/08/05 04:43:50;;;;;;;13.13;7.68;;;20.10;57.30;;;;;;4954111;29;20199;-71
2023/08/05 04:46:18;;;;;;;16.38;8.82;;;20.10;57.20;;;;;;4954213;29;20223;-71
2023/08/05 04:48:47;;;;;;;12.60;7.75;;;20.10;57.30;;;;;;4954054;29;20192;-71
2023/08/05 04:57:29;;;;;;;11.88;7.95;;;20.10;57.30;;;;;;4896941;29;20293;-71
2023/08/05 05:00:06;;;;;;;;;;;;;;;;;;;;;
2023/08/05 05:02:34;;;;;;;11.75;6.75;;;20.00;57.20;;;;;;4871983;29;20375;-71
2023/08/05 05:05:04;;;;;;;11.13;6.80;;;20.10;57.20;;;;;;4934505;29;20239;-71
2023/08/05 05:10:37;;;;;;;14.65;7.28;;;20.00;57.00;;;;;;4896607;29;20738;-63
2023/08/05 05:13:06;;;;;;;10.10;6.90;;;20.10;57.00;;;;;;4932078;29;20207;-71
2023/08/05 05:18:18;;;;;;;13.25;6.82;;;20.10;56.90;;;;;;4954277;28;20194;-71
2023/08/05 05:24:22;;;;;;;11.63;6.15;;;20.00;56.60;;;;;;4992175;28;20671;-71
2023/08/05 05:26:50;;;;;;;11.05;6.10;;;20.00;56.50;;;;;;4992353;28;20258;-71
2023/08/05 05:29:19;;;;;;;9.85;5.70;;;20.00;56.50;;;;;;4992072;28;20241;-71
2023/08/05 05:34:48;;;;;;;12.00;6.53;;;20.00;56.40;;;;;;4981945;28;20206;-70
2023/08/05 05:37:21;;;;;;;8.65;5.90;;;20.00;56.40;;;;;;4991911;28;20187;-71
2023/08/05 05:40:00;;;;;;;10.65;5.50;;;20.00;56.30;;;;;;4991618;28;20237;-71
2023/08/05 05:42:28;;;;;;;11.65;6.07;;;20.00;56.30;;;;;;4933887;29;20327;-71
2023/08/05 05:47:58;;;;;;;10.63;5.50;;;20.00;56.20;;;;;;4877459;29;20238;-71
2023/08/05 05:50:26;;;;;;;10.43;5.80;;;20.00;56.20;;;;;;4879381;29;20713;-71
2023/08/05 05:53:13;;;;;;;;;;;;;;;;;;;;;
2023/08/05 05:56:14;;;;;;;10.10;5.28;;;20.00;56.40;;;;;;4890736;29;20220;-72
2023/08/05 05:58:43;;;;;;;9.70;4.80;;;20.00;56.40;;;;;;4932344;29;20255;-72
2023/08/05 06:01:14;;;;;;;7.15;4.63;;;19.90;56.40;;;;;;4933565;29;20240;-71
2023/08/05 06:03:42;;;;;;;10.32;5.38;;;20.00;56.60;;;;;;4933747;29;20287;-71
2023/08/05 06:06:10;;;;;;;6.85;4.03;;;19.90;56.60;;;;;;4943998;28;20221;-71
2023/08/05 06:08:37;;;;;;;7.55;4.45;;;19.90;56.70;;;;;;4991309;28;20281;-71
2023/08/05 06:11:37;;;;;;;7.68;4.50;;;20.00;56.90;;;;;;4991313;28;20288;-71
2023/08/05 06:14:06;;;;;;;6.65;4.82;;;19.90;56.90;;;;;;4986912;28;20209;-71
2023/08/05 06:16:37;;;;;;;9.02;4.60;;;19.90;57.00;;;;;;4991362;28;20218;-71
2023/08/05 06:19:05;;;;;;;8.32;3.83;;;19.90;57.10;;;;;;4991123;28;20190;-71
2023/08/05 06:21:32;;;;;;;10.07;4.32;;;19.90;57.20;;;;;;4991148;28;20249;-71
2023/08/05 06:23:59;;;;;;;9.35;4.18;;;19.90;57.30;;;;;;4990952;28;20190;-71
2023/08/05 06:30:09;;;;;;;8.27;3.67;;;19.90;57.40;;;;;;4991072;28;20193;-71
2023/08/05 06:32:46;;;;;;;6.05;3.70;;;19.90;57.60;;;;;;4990829;28;20210;-71
2023/08/05 06:35:14;;;;;;;5.50;3.40;;;19.90;57.60;;;;;;4990871;28;20224;-66
2023/08/05 06:40:28;;;;;;;6.78;4.18;;;19.90;57.80;;;;;;4958452;28;20595;-71
2023/08/05 06:42:59;;;;;;;7.20;3.22;;;19.90;57.80;;;;;;4991044;28;20233;-71
2023/08/05 06:55:39;;;;;;;3.85;2.70;;;19.90;58.20;;;;;;4912203;28;20217;-70
2023/08/05 06:58:07;;;;;;;4.90;2.55;;;19.90;58.20;;;;;;4942783;28;20202;-71
2023/08/05 07:00:37;;;;;;;3.30;2.35;;;19.90;58.30;;;;;;4990441;28;20317;-71
2023/08/05 07:03:04;;;;;;;4.18;2.58;;;19.90;58.40;;;;;;4990386;28;20313;-71
2023/08/05 07:05:32;;;;;;;4.60;2.40;;;19.90;58.40;;;;;;4990515;28;20276;-71
2023/08/05 07:08:52;;;;;;;3.45;2.05;;;19.90;58.50;;;;;;4989933;28;20767;-71
2023/08/05 07:15:36;;;;;;;4.72;2.50;;;19.80;58.60;;;;;;4932040;28;20209;-71
2023/08/05 07:18:14;;;;;;;3.90;1.95;;;19.80;58.70;;;;;;4990288;28;20239;-71
2023/08/05 07:20:42;;;;;;;4.70;2.10;;;19.80;58.70;;;;;;4958341;28;20217;-71
2023/08/05 07:26:27;;;;;;;2.95;2.10;;;19.80;58.90;;;;;;4932619;29;20216;-71
2023/08/05 07:28:56;;;;;;;3.25;1.75;;;19.80;59.10;;;;;;4963093;28;20217;-71
2023/08/05 07:31:23;;;;;;;6.35;2.00;;;19.80;59.00;;;;;;4990415;28;20218;-71
2023/08/05 07:33:51;;;;;;;4.57;1.75;;;19.80;59.10;;;;;;4990138;28;20190;-71
2023/08/05 07:36:22;;;;;;;4.25;2.00;;;19.80;59.00;;;;;;4990623;28;20273;-71
2023/08/05 07:38:51;;;;;;;3.17;1.80;;;19.80;59.10;;;;;;4983562;28;20257;-71
2023/08/05 07:47:17;;;;;;;2.38;1.88;;;19.80;59.40;;;;;;4884710;29;20687;-71
2023/08/05 07:56:00;;;;;;;;;;;;;;;;;;;;;
2023/08/05 07:58:29;;;;;;;4.50;1.80;;;19.80;59.60;;;;;;4916978;29;20706;-71
2023/08/05 08:03:53;;;;;;;2.38;1.45;;;19.80;59.70;;;;;;4915759;29;20319;-71
2023/08/05 08:06:20;;;;;;;2.70;1.60;;;19.80;59.90;;;;;;4916657;29;20224;-71
2023/08/05 08:08:56;;;;;;;3.90;1.70;;;19.80;59.90;;;;;;4916729;29;20201;-71
2023/08/05 08:11:40;;;;;;;6.13;1.67;;;19.80;59.90;;;;;;4916741;29;20256;-71
2023/08/05 08:24:09;;;;;;;3.72;1.60;;;19.80;60.10;;;;;;4897653;28;20202;-70
2023/08/05 08:26:56;;;;;;;2.78;1.60;;;19.80;60.10;;;;;;4973910;28;20218;-71
2023/08/05 08:29:26;;;;;;;5.85;1.80;;;19.80;60.20;;;;;;4974231;28;20275;-71
2023/08/05 08:38:10;;;;;;;3.83;1.67;;;19.80;60.90;;;;;;4978096;28;20747;-70
2023/08/05 08:43:41;;;;;;;3.35;1.80;;;19.80;61.10;;;;;;4992574;28;20243;-71
2023/08/05 08:46:11;;;;;;;3.63;1.77;;;19.80;61.10;;;;;;4993104;28;20304;-71
2023/08/05 08:49:00;;;;;;;3.47;1.55;;;19.80;61.20;;;;;;4991453;28;20194;-71
2023/08/05 08:51:48;;;;;;;3.22;1.70;;;19.80;61.50;;;;;;4897086;29;20226;-71
2023/08/05 09:00:15;;;;;;;4.93;2.00;;;19.80;61.90;;;;;;4896803;29;20209;-70
2023/08/05 09:06:09;;;;;;;2.58;1.20;;;19.80;62.10;;;;;;4897003;29;20296;-70
2023/08/05 09:08:47;;;;;;;;;;;;;;;;;;;;;
2023/08/05 09:11:18;;;;;;;2.20;1.30;;;19.80;62.50;;;;;;4896308;29;20575;-70
2023/08/05 09:13:57;;;;;;;;;;;;;;;;;;;;;
2023/08/05 09:16:26;;;;;;;5.30;1.33;;;19.80;63.30;;;;;;4896718;29;20598;-70
2023/08/05 09:18:54;;;;;;;4.13;1.13;;;19.80;63.00;;;;;;4896596;29;20233;-70
2023/08/05 09:21:26;;;;;;;5.68;1.50;;;19.80;63.00;;;;;;4896639;29;20225;-70
2023/08/05 09:24:29;;;;;;;2.33;1.00;;;19.80;63.50;;;;;;4937536;28;20233;-71
2023/08/05 09:26:58;;;;;;;3.20;1.35;;;19.80;63.40;;;;;;4972081;28;20312;-71
2023/08/05 09:29:59;;;;;;;;;;;;;;;;;;;;;
2023/08/05 09:32:28;;;;;;;3.50;1.40;;;19.80;63.90;;;;;;4980023;28;20321;-70
2023/08/05 09:38:28;;;;;;;;;;;;;;;;;;;;;
2023/08/05 09:47:07;;;;;;;2.70;0.90;;;19.90;65.90;;;;;;4913446;29;20659;-70
2023/08/05 09:50:03;;;;;;;;;;;;;;;;;;;;;
2023/08/05 09:56:31;;;;;;;3.47;1.10;;;19.80;65.70;;;;;;4933850;29;20210;-71
2023/08/05 10:05:03;;;;;;;8.45;1.45;;;19.70;67.10;;;;;;4876271;29;20266;-70
2023/08/05 10:10:31;;;;;;;10.43;1.98;;;19.70;66.70;;;;;;4877066;29;20715;-70
2023/08/05 10:16:20;;;;;;;9.15;1.75;;;19.70;68.70;;;;;;4858284;29;20231;-71
2023/08/05 10:27:59;;;;;;;;;;;;;;;;;;;;;
2023/08/05 10:30:44;;;;;;;11.48;2.20;;;19.60;67.60;;;;;;4910885;29;20705;-70
2023/08/05 10:36:03;;;;;;;14.40;3.17;;;19.60;67.70;;;;;;4975329;28;20255;-71
2023/08/05 10:41:59;;;;;;;;;;;;;;;;;;;;;
2023/08/05 10:54:31;;;;;;;22.92;3.88;;;19.50;68.40;;;;;;4932710;29;20328;-70
2023/08/05 10:56:58;;;;;;;13.75;2.90;;;19.50;68.90;;;;;;4932865;29;20232;-70
2023/08/05 11:02:32;;;;;;;14.95;3.42;;;19.50;68.90;;;;;;4988757;28;20334;-69
2023/08/05 11:05:10;;;;;;;16.65;3.60;;;19.50;68.60;;;;;;4990507;28;20194;-70
2023/08/05 11:07:51;;;;;;;19.75;4.00;;;19.60;69.10;;;;;;4990577;28;20272;-70
2023/08/05 11:10:19;;;;;;;20.10;3.65;;;19.50;68.50;;;;;;4990472;28;20193;-70
2023/08/05 11:12:47;;;;;;;17.35;3.40;;;19.60;68.90;;;;;;4989613;28;20248;-70
2023/08/05 11:15:14;;;;;;;15.45;3.47;;;19.60;69.10;;;;;;4991383;28;20194;-71
2023/08/05 11:24:37;;;;;;;17.75;2.88;;;19.60;69.40;;;;;;4875972;29;20230;-70
2023/08/05 11:33:11;;;;;;;14.40;2.90;;;19.50;69.20;;;;;;4891187;29;20231;-70
2023/08/05 11:35:47;;;;;;;17.58;3.00;;;19.50;69.70;;;;;;4932646;29;20208;-70
2023/08/05 11:39:09;;;;;;;15.57;2.70;;;19.50;69.40;;;;;;4960076;28;20233;-70
2023/08/05 11:48:16;;;;;;;18.20;2.75;;;19.50;69.70;;;;;;4884387;29;20301;-71
2023/08/05 11:50:44;;;;;;;16.73;3.33;;;19.40;69.60;;;;;;4894444;29;20330;-71
2023/08/05 11:53:12;;;;;;;12.65;3.13;;;19.40;69.50;;;;;;4894514;29;20206;-71
2023/08/05 11:55:44;;;;;;;16.48;3.15;;;19.30;69.20;;;;;;4894300;29;20651;-71
2023/08/05 11:58:15;;;;;;;13.77;3.13;;;19.40;69.40;;;;;;4894405;29;20245;-71
2023/08/05 12:00:53;;;;;;;17.85;3.35;;;19.40;69.20;;;;;;4894400;29;20195;-71
2023/08/05 12:03:42;;;;;;;17.48;3.65;;;19.50;69.30;;;;;;4894146;29;20221;-71
2023/08/05 12:06:12;;;;;;;15.60;3.08;;;19.40;69.00;;;;;;4894330;29;20233;-71
2023/08/05 12:08:45;;;;;;;17.80;3.40;;;19.40;69.90;;;;;;4894270;29;20206;-71
2023/08/05 12:14:40;;;;;;;12.55;2.30;;;19.50;69.00;;;;;;4897267;29;20266;-71
2023/08/05 12:20:27;;;;;;;16.52;3.88;;;19.50;68.60;;;;;;4913070;29;20213;-71
2023/08/05 12:22:55;;;;;;;15.80;2.83;;;19.40;68.40;;;;;;4914274;29;20731;-71
2023/08/05 12:25:59;;;;;;;12.85;3.08;;;19.40;68.50;;;;;;4947999;29;20199;-71
2023/08/05 12:28:34;;;;;;;13.77;2.75;;;19.40;68.20;;;;;;4954599;29;20200;-71
2023/08/05 12:31:51;;;;;;;14.40;3.13;;;19.30;68.00;;;;;;4954430;29;20233;-71
2023/08/05 12:34:29;;;;;;;12.00;2.85;;;19.40;68.10;;;;;;4954427;29;20191;-71
2023/08/05 12:37:03;;;;;;;16.13;3.15;;;19.30;67.90;;;;;;4922566;29;20223;-70
2023/08/05 12:39:33;;;;;;;12.65;2.58;;;19.30;67.70;;;;;;4954249;29;20239;-71
2023/08/05 12:42:01;;;;;;;15.10;3.15;;;19.30;67.50;;;;;;4952274;29;20219;-71
2023/08/05 12:44:28;;;;;;;15.52;3.28;;;19.30;67.50;;;;;;4954231;29;20235;-71
2023/08/05 12:46:56;;;;;;;15.85;3.35;;;19.30;67.20;;;;;;4954185;29;20314;-71
2023/08/05 13:01:33;;;;;;;;;;;;;;;;;;;;;
2023/08/05 13:07:28;;;;;;;16.95;3.30;;;19.20;65.00;;;;;;4948514;29;20271;-70
2023/08/05 13:09:56;;;;;;;22.08;3.17;;;19.20;65.10;;;;;;4953807;29;20283;-71
2023/08/05 13:12:32;;;;;;;13.93;3.03;;;19.10;64.60;;;;;;4953771;29;20310;-71
2023/08/05 13:15:00;;;;;;;11.95;3.00;;;19.10;65.00;;;;;;4953679;29;20282;-71
2023/08/05 13:20:11;;;;;;;19.60;3.25;;;19.10;63.90;;;;;;4952581;28;20235;-70
2023/08/05 13:22:39;;;;;;;21.23;3.47;;;19.10;64.00;;;;;;4953590;29;20306;-72
2023/08/05 13:34:59;;;;;;;14.05;3.05;;;19.10;63.50;;;;;;4952681;28;20619;-71
2023/08/05 13:37:30;;;;;;;14.35;3.40;;;19.10;63.10;;;;;;4953072;29;20227;-71
2023/08/05 13:43:03;;;;;;;20.70;3.25;;;19.10;62.80;;;;;;4877353;29;20239;-71
2023/08/05 13:45:33;;;;;;;14.85;2.67;;;19.10;63.20;;;;;;4877184;29;20213;-71
2023/08/05 14:01:15;;;;;;;17.42;3.10;;;19.10;63.00;;;;;;4895879;29;20229;-71
2023/08/05 14:03:43;;;;;;;21.13;3.17;;;19.10;62.80;;;;;;4910827;29;20237;-71
2023/08/05 14:06:53;;;;;;;19.77;3.22;;;19.10;62.80;;;;;;4914587;29;20221;-72
2023/08/05 14:09:26;;;;;;;14.45;2.80;;;19.10;62.70;;;;;;4895862;29;20209;-71
2023/08/05 14:19:00;;;;;;;17.35;3.40;;;19.10;62.90;;;;;;4933392;29;20200;-71
2023/08/05 14:25:02;;;;;;;;;;;;;;;;;;;;;
2023/08/05 14:27:57;;;;;;;18.27;3.33;;;19.10;63.80;;;;;;4917327;29;20234;-70
2023/08/05 14:30:29;;;;;;;20.65;3.42;;;19.10;64.10;;;;;;4933333;29;20208;-71
2023/08/05 14:33:25;;;;;;;16.00;3.28;;;19.10;64.30;;;;;;4933276;29;20247;-71
2023/08/05 14:46:17;;;;;;;17.85;3.53;;;19.10;64.90;;;;;;4839845;29;20203;-71
2023/08/05 14:48:46;;;;;;;19.70;3.72;;;19.10;65.00;;;;;;4852405;29;20214;-71
2023/08/05 14:51:14;;;;;;;26.02;3.55;;;19.10;64.90;;;;;;4876364;29;20223;-71
2023/08/05 14:53:51;;;;;;;;;;;;;;;;;;;;;
2023/08/05 14:56:23;;;;;;;26.20;3.55;;;19.10;64.60;;;;;;4876255;29;20261;-71
2023/08/05 14:58:53;;;;;;;15.93;3.42;;;19.10;64.40;;;;;;4876262;29;20199;-71
2023/08/05 15:01:22;;;;;;;19.30;2.97;;;19.10;64.40;;;;;;4876388;29;20278;-71
2023/08/05 15:07:10;;;;;;;;;;;;;;;;;;;;;
2023/08/05 15:09:47;;;;;;;22.33;3.70;;;19.20;64.40;;;;;;4818678;29;20206;-70
2023/08/05 15:18:48;;;;;;;28.58;4.45;;;19.30;64.40;;;;;;4857138;29;20659;-71
2023/08/05 15:21:15;;;;;;;26.80;4.18;;;19.20;64.40;;;;;;4879523;29;20253;-74
2023/08/05 15:23:42;;;;;;;21.02;3.63;;;19.30;64.60;;;;;;4894657;29;20324;-74
2023/08/05 15:26:09;;;;;;;19.70;4.53;;;19.30;64.60;;;;;;4894578;29;20225;-74
2023/08/05 15:28:36;;;;;;;20.98;3.30;;;19.20;64.70;;;;;;4894667;29;20198;-73
2023/08/05 15:31:03;;;;;;;20.50;3.90;;;19.30;64.60;;;;;;4894760;29;20202;-72
2023/08/05 15:34:17;;;;;;;23.35;3.65;;;19.20;64.40;;;;;;4894588;29;20205;-71
2023/08/05 15:47:12;;;;;;;17.40;3.88;;;19.10;64.40;;;;;;4913411;29;20238;-71
2023/08/05 15:49:40;;;;;;;17.55;3.05;;;19.10;64.40;;;;;;4934651;29;20242;-72
2023/08/05 15:52:08;;;;;;;15.02;3.13;;;19.20;64.60;;;;;;4951471;29;20220;-72
2023/08/05 15:54:35;;;;;;;21.73;3.47;;;19.10;64.40;;;;;;4951758;29;20347;-71
2023/08/05 15:57:08;;;;;;;22.33;4.07;;;19.20;64.40;;;;;;4951476;28;20433;-72
2023/08/05 15:59:43;;;;;;;18.10;3.80;;;19.20;64.20;;;;;;4954981;29;20192;-71
2023/08/05 16:02:11;;;;;;;20.38;3.35;;;19.20;64.20;;;;;;4954966;29;20223;-72
2023/08/05 16:04:42;;;;;;;23.10;4.25;;;19.20;64.00;;;;;;4954910;29;20223;-71
2023/08/05 16:12:59;;;;;;;12.77;3.00;;;19.10;63.90;;;;;;4930595;29;20360;-72
2023/08/05 16:15:26;;;;;;;19.50;4.35;;;19.10;63.90;;;;;;4954950;29;20200;-72
2023/08/05 16:17:55;;;;;;;17.42;3.20;;;19.10;64.00;;;;;;4954842;29;20223;-72
2023/08/05 16:20:32;;;;;;;12.73;2.85;;;19.10;63.80;;;;;;4954603;29;20286;-72
2023/08/05 16:22:59;;;;;;;15.93;3.08;;;19.10;63.60;;;;;;4954739;29;20250;-72
2023/08/05 16:29:13;;;;;;;11.40;2.60;;;19.10;63.60;;;;;;4916401;29;20231;-72
2023/08/05 16:31:40;;;;;;;11.82;2.40;;;19.10;63.20;;;;;;4871870;29;20225;-71
2023/08/05 16:44:36;;;;;;;10.57;2.72;;;19.10;63.00;;;;;;4875920;29;20245;-72
2023/08/05 16:47:41;;;;;;;10.70;2.58;;;19.10;62.60;;;;;;4878522;29;20274;-71
2023/08/05 16:50:09;;;;;;;10.50;2.30;;;19.10;62.70;;;;;;4876547;29;20349;-72
2023/08/05 16:52:36;;;;;;;13.73;2.28;;;19.10;62.50;;;;;;4897002;29;20225;-71
2023/08/05 16:57:45;;;;;;;15.93;2.50;;;19.10;61.90;;;;;;4889683;29;20225;-71
2023/08/05 17:01:08;;;;;;;10.98;2.08;;;19.10;61.90;;;;;;4896963;29;20213;-72
2023/08/05 17:07:17;;;;;;;8.90;2.67;;;19.10;61.60;;;;;;4883678;29;20232;-71
2023/08/05 17:09:44;;;;;;;13.43;2.35;;;19.10;61.30;;;;;;4933480;29;20199;-71
2023/08/05 17:12:16;;;;;;;16.42;2.80;;;19.10;61.30;;;;;;4934624;29;20220;-70
2023/08/05 17:14:46;;;;;;;12.55;2.10;;;19.00;61.10;;;;;;4934760;29;20287;-71
2023/08/05 17:17:34;;;;;;;12.25;2.38;;;19.00;61.10;;;;;;4946486;28;20219;-72
2023/08/05 17:20:08;;;;;;;12.20;2.08;;;19.00;61.00;;;;;;4941309;28;20585;-72
2023/08/05 17:22:35;;;;;;;11.77;3.03;;;19.00;61.00;;;;;;4972955;28;20229;-71
2023/08/05 17:25:06;;;;;;;12.13;2.38;;;19.00;61.00;;;;;;4972703;28;20737;-71
2023/08/05 17:30:29;;;;;;;14.52;2.40;;;18.90;60.60;;;;;;5034044;28;20298;-72
2023/08/05 17:36:09;;;;;;;8.52;2.42;;;18.90;60.90;;;;;;4977822;28;20198;-72
2023/08/05 17:38:37;;;;;;;14.27;2.50;;;18.90;60.70;;;;;;4961199;28;20209;-71
2023/08/05 17:41:04;;;;;;;13.80;2.55;;;19.00;61.00;;;;;;5051087;28;20188;-71
2023/08/05 17:44:17;;;;;;;;;;;;;;;;;;;;;
2023/08/05 17:50:15;;;;;;;9.23;2.42;;;18.90;61.00;;;;;;4972481;28;20186;-71
2023/08/05 17:52:43;;;;;;;12.68;2.22;;;18.90;61.00;;;;;;4972298;28;20232;-71
2023/08/05 17:55:10;;;;;;;13.77;2.42;;;18.90;61.00;;;;;;4972255;28;20202;-71
2023/08/05 17:58:14;;;;;;;10.48;2.40;;;18.90;61.00;;;;;;4972306;28;20229;-71
2023/08/05 18:03:45;;;;;;;13.90;2.83;;;18.90;61.40;;;;;;4908709;29;20239;-72
2023/08/05 18:12:45;;;;;;;18.83;2.70;;;18.90;61.60;;;;;;4946293;29;20288;-72
2023/08/05 18:15:13;;;;;;;13.40;2.40;;;18.90;62.00;;;;;;4948119;29;20207;-70
2023/08/05 18:17:40;;;;;;;15.80;2.40;;;18.80;62.30;;;;;;4952765;29;20238;-71
2023/08/05 18:20:08;;;;;;;13.60;2.47;;;18.90;62.50;;;;;;4952169;28;20196;-71
2023/08/05 18:29:33;;;;;;;10.52;2.17;;;18.90;62.30;;;;;;4895842;29;20244;-71
2023/08/05 18:32:10;;;;;;;;;;;;;;;;;;;;;
2023/08/05 18:34:59;;;;;;;9.40;2.00;;;18.80;61.70;;;;;;4879712;29;20486;-71
2023/08/05 18:37:27;;;;;;;7.50;2.20;;;18.90;61.70;;;;;;4939986;29;20230;-71
2023/08/05 18:39:54;;;;;;;13.02;1.77;;;18.90;61.70;;;;;;4952595;29;20239;-71
2023/08/05 18:42:24;;;;;;;4.60;1.60;;;18.90;60.80;;;;;;4952183;29;20223;-71
2023/08/05 18:44:54;;;;;;;7.75;1.60;;;18.90;60.60;;;;;;4952086;29;20294;-71
2023/08/05 18:54:08;;;;;;;13.10;2.63;;;19.00;60.10;;;;;;4987688;28;20191;-72
2023/08/05 18:56:36;;;;;;;7.93;1.60;;;18.90;59.70;;;;;;5050116;28;20310;-71
2023/08/05 18:59:13;;;;;;;;;;;;;;;;;;;;;
2023/08/05 19:14:59;;;;;;;7.80;1.98;;;18.90;59.10;;;;;;5029859;28;20561;-72
2023/08/05 19:17:28;;;;;;;8.77;2.13;;;19.00;59.10;;;;;;5029900;28;20227;-72
2023/08/05 19:19:57;;;;;;;7.07;1.52;;;18.90;59.10;;;;;;5029764;28;20282;-72
2023/08/05 19:22:37;;;;;;;;;;;;;;;;;;;;;
2023/08/05 19:41:36;;;;;;;10.60;1.90;;;18.90;59.00;;;;;;5116141;28;20227;-71
2023/08/05 19:44:03;;;;;;;9.95;1.48;;;18.90;59.00;;;;;;5116724;28;20280;-71
2023/08/05 19:56:06;;;;;;;7.45;1.67;;;18.90;59.10;;;;;;4974953;28;20170;-71
2023/08/05 20:01:56;;;;;;;9.20;1.98;;;18.90;59.20;;;;;;5021891;28;20273;-71
2023/08/05 20:04:47;;;;;;;14.30;2.13;;;18.90;59.30;;;;;;5033312;28;20212;-72
2023/08/05 20:07:15;;;;;;;5.13;1.58;;;18.90;59.30;;;;;;5033182;28;20219;-72
2023/08/05 20:13:09;;;;;;;6.78;1.60;;;18.90;59.30;;;;;;5013225;28;20248;-72
2023/08/05 20:15:37;;;;;;;6.18;1.67;;;18.90;59.00;;;;;;5017059;28;20304;-72
2023/08/05 20:21:18;;;;;;;4.20;1.80;;;18.90;58.90;;;;;;5032943;28;20202;-71
2023/08/05 20:23:53;;;;;;;10.60;1.70;;;18.80;59.00;;;;;;5029488;28;20205;-72
2023/08/05 20:26:21;;;;;;;7.18;1.80;;;18.90;59.00;;;;;;5032560;28;20215;-71
2023/08/05 20:28:49;;;;;;;12.73;1.80;;;18.90;59.00;;;;;;5058643;28;20211;-71
2023/08/05 20:31:20;;;;;;;8.10;1.80;;;18.90;58.90;;;;;;5115626;28;20267;-59
2023/08/05 20:36:31;;;;;;;8.02;1.70;;;18.80;58.70;;;;;;5114823;28;20201;-71
2023/08/05 20:45:13;;;;;;;18.20;3.25;;;18.80;59.10;;;;;;5011400;28;20230;-71
2023/08/05 20:47:40;;;;;;;11.68;3.35;;;18.80;59.20;;;;;;5012589;28;20220;-71
2023/08/05 20:50:37;;;;;;;;;;;;;;;;;;;;;
2023/08/05 20:53:29;;;;;;;10.80;2.38;;;18.80;59.20;;;;;;5010804;28;20232;-71
2023/08/05 20:55:56;;;;;;;8.25;2.40;;;18.80;59.10;;;;;;5012806;28;20213;-71
2023/08/05 20:58:23;;;;;;;12.07;3.25;;;18.80;59.20;;;;;;5012445;28;20224;-60
2023/08/05 21:01:07;;;;;;;;;;;;;;;;;;;;;
2023/08/05 21:03:50;;;;;;;11.52;3.10;;;18.80;59.20;;;;;;4931756;28;20225;-72
2023/08/05 21:28:33;;;;;;;12.00;3.40;;;18.70;59.40;;;;;;4934280;29;20224;-71
2023/08/05 21:31:02;;;;;;;18.13;3.60;;;18.60;59.30;;;;;;4871805;29;20204;-71
2023/08/05 21:33:30;;;;;;;12.60;2.63;;;18.60;59.30;;;;;;4934398;29;20478;-71
2023/08/05 21:45:57;;;;;;;11.52;3.28;;;18.60;59.00;;;;;;4840395;29;20304;-71
2023/08/05 21:48:40;;;;;;;24.73;4.05;;;18.50;59.10;;;;;;4913665;28;20269;-72
2023/08/05 21:59:54;;;;;;;10.68;3.17;;;18.50;59.30;;;;;;4937003;29;20223;-72
2023/08/05 22:02:23;;;;;;;10.50;3.33;;;18.60;59.50;;;;;;4952837;29;20219;-71
2023/08/05 22:10:27;;;;;;;11.70;3.60;;;18.60;59.30;;;;;;4890960;29;20208;-71
2023/08/05 22:12:55;;;;;;;14.68;3.95;;;18.60;59.30;;;;;;4952541;29;20306;-71
2023/08/05 22:15:22;;;;;;;12.25;3.63;;;18.60;59.20;;;;;;4952586;29;20204;-70
2023/08/05 22:18:14;;;;;;;8.13;3.10;;;18.60;59.00;;;;;;4952518;29;20270;-71
2023/08/05 22:24:12;;;;;;;11.23;3.13;;;18.60;59.00;;;;;;4998276;28;20275;-71
2023/08/05 22:26:52;;;;;;;10.88;3.35;;;18.60;59.00;;;;;;5113400;28;20234;-71
2023/08/05 22:33:34;;;;;;;13.88;3.25;;;18.60;59.00;;;;;;5113257;28;20193;-71
2023/08/05 22:36:11;;;;;;;13.93;3.58;;;18.60;59.00;;;;;;5094705;28;20193;-71
2023/08/05 22:38:39;;;;;;;9.50;2.83;;;18.60;59.00;;;;;;5113184;28;20216;-71
2023/08/05 22:47:36;;;;;;;13.10;3.65;;;18.60;59.00;;;;;;5030069;28;20728;-72
2023/08/05 22:50:04;;;;;;;10.02;3.47;;;18.60;59.00;;;;;;5030075;28;20275;-71
2023/08/05 22:56:15;;;;;;;12.25;3.08;;;18.60;59.00;;;;;;5030092;28;20176;-72
2023/08/05 23:01:25;;;;;;;10.48;3.78;;;18.60;59.00;;;;;;5113277;28;20197;-71
2023/08/05 23:03:52;;;;;;;12.25;3.58;;;18.70;59.10;;;;;;5112929;28;20221;-71
2023/08/05 23:06:30;;;;;;;13.90;4.05;;;18.70;59.10;;;;;;5112532;28;20296;-71
2023/08/05 23:09:35;;;;;;;11.88;3.05;;;18.70;59.10;;;;;;5060824;28;20197;-71
2023/08/05 23:12:14;;;;;;;;;;;;;;;;;;;;;
2023/08/05 23:21:43;;;;;;;8.18;3.88;;;18.70;59.10;;;;;;5111539;28;20173;-71
2023/08/05 23:24:12;;;;;;;8.93;3.25;;;18.70;59.00;;;;;;5113000;28;20192;-71
2023/08/05 23:26:41;;;;;;;13.68;3.53;;;18.60;58.80;;;;;;5112771;28;20470;-71
2023/08/05 23:29:48;;;;;;;15.60;2.92;;;18.60;58.70;;;;;;5112716;28;20185;-71